Time;durP1;ratioP1;P1;durP2;ratioP2;P2;SDS_P1;SDS_P2;PMS_P1;PMS_P2;Temp;Humidity;BMP_temperature;BMP_pressure;BME280_temperature;BME280_humidity;BME280_pressure;Samples;Min_cycle;Max_cycle;Signal;HPM_P1;HPM_P2
2023/10/25 04:06:26;;;;;;;4.93;3.22;;;;;;;12.62;100.00;98758.84;5284912;33;32954;-86
2023/10/25 04:09:29;;;;;;;8.23;3.67;;;;;;;12.55;100.00;98758.16;5280144;33;34709;-86
2023/10/25 04:12:32;;;;;;;9.32;4.75;;;;;;;12.53;100.00;98757.53;5278142;33;33527;-86
2023/10/25 04:15:35;;;;;;;7.18;4.65;;;;;;;12.55;100.00;98760.00;5277227;33;33890;-86
2023/10/25 04:18:38;;;;;;;6.80;4.10;;;;;;;12.44;100.00;98772.41;5277173;33;34416;-86
2023/10/25 04:21:42;;;;;;;8.80;5.05;;;;;;;12.45;100.00;98771.34;5276702;33;34804;-86
2023/10/25 04:24:45;;;;;;;6.47;4.15;;;;;;;12.44;100.00;98778.62;5277063;33;33779;-86
2023/10/25 04:27:48;;;;;;;6.07;4.12;;;;;;;12.39;100.00;98775.78;5289195;33;33832;-86
2023/10/25 04:30:51;;;;;;;6.70;4.12;;;;;;;12.37;100.00;98777.06;5264626;33;35304;-85
2023/10/25 04:33:54;;;;;;;6.80;3.65;;;;;;;12.30;100.00;98789.84;5276262;33;34591;-85
2023/10/25 04:36:58;;;;;;;7.50;4.70;;;;;;;12.29;100.00;98794.41;5276676;33;34537;-85
2023/10/25 04:40:01;;;;;;;10.45;4.72;;;;;;;12.29;100.00;98797.13;5292122;33;33766;-86
2023/10/25 04:43:04;;;;;;;6.65;4.50;;;;;;;12.26;100.00;98794.88;5282510;33;34199;-86
2023/10/25 04:46:13;;;;;;;10.15;4.95;;;;;;;12.22;100.00;98796.37;5290003;33;34801;-86
2023/10/25 04:49:19;;;;;;;8.50;5.37;;;;;;;12.23;100.00;98798.84;5288761;33;33848;-90
2023/10/25 04:52:22;;;;;;;8.95;5.32;;;;;;;12.19;100.00;98807.62;5277754;33;34380;-89
2023/10/25 04:55:26;;;;;;;8.55;4.57;;;;;;;12.19;100.00;98808.44;5277835;33;33753;-90
2023/10/25 04:58:30;;;;;;;10.75;5.45;;;;;;;12.19;100.00;98821.91;5278558;33;33997;-86
2023/10/25 05:01:35;;;;;;;7.90;5.20;;;;;;;12.16;100.00;98818.88;5279263;33;33374;-86
2023/10/25 05:04:38;;;;;;;10.07;5.32;;;;;;;12.18;100.00;98833.78;5286917;33;34467;-86
2023/10/25 05:07:44;;;;;;;7.43;4.78;;;;;;;12.12;100.00;98823.06;5297139;33;34559;-86
2023/10/25 05:10:51;;;;;;;7.90;5.57;;;;;;;12.12;100.00;98833.88;5309052;33;34669;-86
2023/10/25 05:13:55;;;;;;;7.68;4.95;;;;;;;12.07;100.00;98847.19;5312373;33;33498;-86
2023/10/25 05:16:59;;;;;;;12.10;6.10;;;;;;;12.12;100.00;98844.66;5312815;33;33239;-86
2023/10/25 05:20:07;;;;;;;9.35;5.25;;;;;;;12.06;100.00;98850.94;5300482;33;34513;-86
2023/10/25 05:23:10;;;;;;;8.73;6.00;;;;;;;12.06;100.00;98859.88;5297761;33;34271;-86
2023/10/25 05:26:14;;;;;;;10.15;5.55;;;;;;;12.07;100.00;98874.16;5314241;33;33932;-86
2023/10/25 05:29:17;;;;;;;8.85;4.97;;;;;;;12.06;100.00;98878.75;5298197;33;33647;-86
2023/10/25 05:32:22;;;;;;;7.82;5.03;;;;;;;12.01;100.00;98884.78;5299771;33;34167;-85
2023/10/25 05:35:25;;;;;;;9.05;5.68;;;;;;;11.97;100.00;98893.56;5281680;33;33810;-86
2023/10/25 05:38:29;;;;;;;11.18;5.68;;;;;;;11.98;100.00;98904.13;5308467;33;33863;-86
2023/10/25 05:41:38;;;;;;;9.15;5.40;;;;;;;12.02;100.00;98920.69;5298037;33;34561;-84
2023/10/25 05:44:42;;;;;;;8.25;5.07;;;;;;;12.02;100.00;98913.44;5291312;33;34360;-84
2023/10/25 05:47:45;;;;;;;11.70;5.72;;;;;;;12.01;100.00;98919.03;5290768;33;34210;-85
2023/10/25 05:50:50;;;;;;;9.90;6.00;;;;;;;12.02;100.00;98926.94;5301713;33;33750;-84
2023/10/25 05:53:53;;;;;;;8.38;5.45;;;;;;;12.03;100.00;98930.44;5277778;33;33958;-84
2023/10/25 05:56:57;;;;;;;10.05;5.70;;;;;;;12.00;100.00;98931.72;5293631;33;34969;-84
2023/10/25 06:00:00;;;;;;;7.55;5.03;;;;;;;12.01;100.00;98927.97;5265941;33;33831;-84
2023/10/25 06:03:08;;;;;;;7.30;4.65;;;;;;;12.13;100.00;98938.84;5298834;33;33877;-84
2023/10/25 06:06:32;;;;;;;8.85;4.87;;;;;;;12.15;100.00;98936.75;5297047;33;33774;-84
2023/10/25 06:09:37;;;;;;;8.65;4.72;;;;;;;12.14;100.00;98950.44;5307375;33;33902;-84
2023/10/25 06:12:40;;;;;;;6.53;4.82;;;;;;;12.22;100.00;98960.97;5307474;33;34570;-85
2023/10/25 06:15:45;;;;;;;6.05;4.50;;;;;;;12.23;100.00;98968.84;5289666;33;33544;-84
2023/10/25 06:18:48;;;;;;;7.80;4.68;;;;;;;12.29;100.00;98986.00;5305320;33;33509;-85
2023/10/25 06:21:51;;;;;;;7.93;4.82;;;;;;;12.30;100.00;98995.75;5292618;33;34474;-85
2023/10/25 06:24:57;;;;;;;7.12;5.10;;;;;;;12.42;100.00;99012.03;5291680;33;34184;-88
2023/10/25 06:28:00;;;;;;;8.15;4.45;;;;;;;12.43;100.00;99014.53;5281437;33;34302;-89
2023/10/25 06:31:05;;;;;;;8.40;4.57;;;;;;;12.51;100.00;99017.97;5293101;33;33966;-89
2023/10/25 06:34:08;;;;;;;6.30;4.40;;;;;;;12.58;100.00;99038.44;5292242;33;33461;-89
2023/10/25 06:37:14;;;;;;;5.62;3.87;;;;;;;12.65;100.00;99043.78;5293632;33;33656;-86
2023/10/25 06:40:18;;;;;;;10.13;4.68;;;;;;;12.69;100.00;99043.13;5310997;33;34129;-85
2023/10/25 06:43:24;;;;;;;5.50;3.95;;;;;;;12.76;100.00;99042.22;5299530;33;33784;-85
2023/10/25 06:46:27;;;;;;;7.07;3.92;;;;;;;12.88;100.00;99052.03;5305656;33;34977;-84
2023/10/25 06:49:31;;;;;;;6.40;4.00;;;;;;;12.96;100.00;99060.88;5307500;33;33747;-84
2023/10/25 06:52:37;;;;;;;4.45;3.78;;;;;;;13.07;100.00;99052.00;5312235;33;33603;-85
2023/10/25 06:55:40;;;;;;;5.45;3.50;;;;;;;13.05;100.00;99063.06;5304317;33;34366;-85
2023/10/25 06:58:44;;;;;;;7.70;4.28;;;;;;;13.10;100.00;99073.19;5303728;33;34520;-84
2023/10/25 07:01:53;;;;;;;6.78;3.87;;;;;;;13.11;100.00;99062.16;5299644;33;33401;-85
2023/10/25 07:05:09;;;;;;;;;;;;;;;13.16;100.00;99056.06;5278622;33;34116;-86
2023/10/25 07:08:12;;;;;;;3.80;3.22;;;;;;;13.14;100.00;99056.28;5305171;33;34698;-86
2023/10/25 07:11:21;;;;;;;3.97;3.37;;;;;;;13.23;100.00;99064.09;5297784;33;33830;-87
2023/10/25 07:14:50;;;;;;;6.18;3.53;;;;;;;13.34;100.00;99066.06;5307782;33;35986;-84
2023/10/25 07:17:53;;;;;;;4.87;4.20;;;;;;;13.48;100.00;99059.41;5292390;33;34332;-85
2023/10/25 07:20:58;;;;;;;6.18;3.95;;;;;;;13.59;100.00;99072.16;5308429;33;34936;-87
2023/10/25 07:24:01;;;;;;;4.50;3.25;;;;;;;13.61;100.00;99059.22;5292768;33;34786;-85
2023/10/25 07:27:04;;;;;;;7.15;3.67;;;;;;;13.59;100.00;99047.00;5297549;33;34360;-86
2023/10/25 07:30:10;;;;;;;5.00;3.67;;;;;;;13.58;100.00;99053.47;5296192;33;34899;-86
2023/10/25 07:33:13;;;;;;;4.30;3.30;;;;;;;13.58;100.00;99057.00;5294688;33;33854;-86
2023/10/25 07:36:16;;;;;;;5.57;3.90;;;;;;;13.58;100.00;99072.41;5305434;33;33751;-86
2023/10/25 07:39:19;;;;;;;6.75;3.90;;;;;;;13.61;100.00;99061.94;5280669;33;33894;-86
2023/10/25 07:42:23;;;;;;;7.50;3.60;;;;;;;13.65;100.00;99066.88;5307237;33;34596;-86
2023/10/25 07:45:26;;;;;;;6.43;3.47;;;;;;;13.82;100.00;99054.34;5311835;33;34859;-86
2023/10/25 07:48:30;;;;;;;5.57;3.53;;;;;;;14.04;100.00;99071.72;5295649;33;34483;-85
2023/10/25 07:51:33;;;;;;;6.85;3.47;;;;;;;14.20;100.00;99064.78;5308845;33;33784;-87
2023/10/25 07:54:37;;;;;;;4.18;3.33;;;;;;;14.46;100.00;99081.63;5311108;33;33767;-84
2023/10/25 07:57:40;;;;;;;4.78;3.30;;;;;;;14.65;100.00;99104.03;5321084;33;33990;-89
2023/10/25 08:01:03;;;;;;;3.80;3.17;;;;;;;14.78;100.00;99111.94;5311719;33;33853;-85
2023/10/25 08:04:06;;;;;;;4.78;3.20;;;;;;;14.84;100.00;99126.41;5311323;33;34215;-85
2023/10/25 08:07:10;;;;;;;5.50;3.30;;;;;;;14.87;100.00;99131.38;5311833;33;33987;-84
2023/10/25 08:10:13;;;;;;;5.75;3.75;;;;;;;15.00;100.00;99117.56;5298971;33;34327;-84
2023/10/25 08:13:16;;;;;;;4.80;3.37;;;;;;;15.35;100.00;99120.19;5314853;33;34037;-84
2023/10/25 08:16:19;;;;;;;5.05;3.30;;;;;;;15.52;100.00;99130.31;5307428;33;33461;-83
2023/10/25 08:19:22;;;;;;;4.28;3.05;;;;;;;15.30;100.00;99146.41;5313269;33;34567;-84
2023/10/25 08:22:26;;;;;;;3.90;3.37;;;;;;;15.36;100.00;99161.72;5301553;33;34560;-84
2023/10/25 08:25:33;;;;;;;4.95;3.45;;;;;;;15.45;100.00;99160.28;5284571;33;35196;-83
2023/10/25 08:28:36;;;;;;;4.32;3.50;;;;;;;15.69;100.00;99150.22;5312932;33;33815;-83
2023/10/25 08:31:39;;;;;;;3.50;3.00;;;;;;;15.62;100.00;99142.19;5319440;33;33863;-84
2023/10/25 08:34:46;;;;;;;3.78;3.08;;;;;;;15.52;100.00;99158.25;5283893;33;33603;-84
2023/10/25 08:37:49;;;;;;;4.20;2.72;;;;;;;15.52;100.00;99154.72;5289302;33;33561;-84
2023/10/25 08:41:00;;;;;;;4.53;2.87;;;;;;;15.45;100.00;99160.28;5311980;33;33490;-84
2023/10/25 08:44:04;;;;;;;2.83;2.53;;;;;;;15.38;100.00;99171.25;5303081;33;34745;-84
2023/10/25 08:47:10;;;;;;;4.07;2.92;;;;;;;15.40;100.00;99190.81;5310310;33;34627;-85
2023/10/25 08:50:19;;;;;;;3.25;2.83;;;;;;;15.32;100.00;99193.91;5295920;33;33787;-85
2023/10/25 08:53:26;;;;;;;3.60;2.90;;;;;;;15.30;100.00;99201.47;5301670;33;33786;-85
2023/10/25 08:56:33;;;;;;;4.03;2.75;;;;;;;15.29;100.00;99216.06;5317455;33;33859;-85
2023/10/25 08:59:51;;;;;;;4.70;3.03;;;;;;;15.39;100.00;99218.19;5314942;33;33562;-84
2023/10/25 09:02:54;;;;;;;3.47;3.08;;;;;;;15.50;100.00;99239.06;5308292;33;33410;-84
2023/10/25 09:06:02;;;;;;;7.55;3.50;;;;;;;15.36;100.00;99249.31;5287322;33;34789;-84
2023/10/25 09:09:06;;;;;;;4.12;3.45;;;;;;;15.42;100.00;99250.28;5315452;33;33888;-84
2023/10/25 09:12:19;;;;;;;3.78;2.80;;;;;;;15.43;100.00;99249.19;5298943;33;33762;-84
2023/10/25 09:15:29;;;;;;;3.92;2.97;;;;;;;15.77;100.00;99249.44;5314340;33;33477;-89
2023/10/25 09:18:36;;;;;;;5.50;3.10;;;;;;;15.98;100.00;99237.91;5307695;33;34018;-86
2023/10/25 09:21:39;;;;;;;3.78;2.80;;;;;;;16.30;100.00;99240.97;5316898;33;34725;-85
2023/10/25 09:24:47;;;;;;;4.90;4.18;;;;;;;16.67;100.00;99240.56;5315700;33;33765;-85
2023/10/25 09:27:50;;;;;;;3.80;2.95;;;;;;;16.96;100.00;99251.38;5313180;33;34022;-85
2023/10/25 09:30:58;;;;;;;3.08;2.70;;;;;;;16.85;100.00;99253.13;5300873;33;33977;-85
2023/10/25 09:34:03;;;;;;;2.78;2.50;;;;;;;16.59;100.00;99259.16;5307667;33;34632;-84
2023/10/25 09:37:06;;;;;;;3.85;2.80;;;;;;;16.42;100.00;99267.25;5297869;33;34924;-85
2023/10/25 09:40:10;;;;;;;3.55;2.58;;;;;;;16.80;100.00;99263.91;5309316;33;33915;-85
2023/10/25 09:43:20;;;;;;;2.30;2.10;;;;;;;16.82;100.00;99252.75;5300580;33;33993;-85
2023/10/25 09:46:27;;;;;;;2.83;2.45;;;;;;;16.75;100.00;99261.06;5324409;33;33914;-85
2023/10/25 09:49:33;;;;;;;3.17;2.13;;;;;;;16.69;100.00;99272.91;5306167;33;34000;-85
2023/10/25 09:52:39;;;;;;;2.25;2.08;;;;;;;16.49;100.00;99285.03;5310801;33;33752;-85
2023/10/25 09:55:54;;;;;;;2.58;2.17;;;;;;;16.44;100.00;99295.84;5325450;33;33961;-85
2023/10/25 09:58:58;;;;;;;2.30;2.10;;;;;;;16.08;100.00;99295.13;5327481;33;33871;-84
2023/10/25 10:02:03;;;;;;;2.35;2.12;;;;;;;15.99;100.00;99295.75;5303999;33;33853;-85
2023/10/25 10:05:32;;;;;;;2.33;2.12;;;;;;;15.96;100.00;99286.19;5327220;33;33883;-85
2023/10/25 10:08:56;;;;;;;2.70;2.00;;;;;;;15.97;100.00;99276.13;5313918;33;33943;-84
2023/10/25 10:12:07;;;;;;;2.45;1.95;;;;;;;16.26;100.00;99277.84;5316955;33;34293;-84
2023/10/25 10:15:12;;;;;;;2.70;2.50;;;;;;;16.41;100.00;99277.31;5296846;33;33532;-89
2023/10/25 10:18:15;;;;;;;2.97;1.85;;;;;;;16.49;100.00;99276.91;5293543;33;34052;-85
2023/10/25 10:21:18;;;;;;;1.92;1.58;;;;;;;16.45;100.00;99275.75;5312779;33;34458;-85
2023/10/25 10:24:43;;;;;;;2.25;1.92;;;;;;;16.45;100.00;99274.94;5286330;33;34324;-85
2023/10/25 10:27:52;;;;;;;3.42;1.75;;;;;;;16.48;100.00;99283.41;5325864;33;34737;-84
2023/10/25 10:30:56;;;;;;;1.98;1.87;;;;;;;16.56;100.00;99268.63;5298359;33;33960;-85
2023/10/25 10:33:59;;;;;;;2.87;1.80;;;;;;;16.78;100.00;99260.59;5297969;33;33923;-85
2023/10/25 10:37:10;;;;;;;2.50;1.70;;;;;;;17.03;100.00;99253.94;5310328;33;34392;-84
2023/10/25 10:40:14;;;;;;;1.85;1.70;;;;;;;16.58;100.00;99257.47;5321999;33;33605;-85
2023/10/25 10:43:20;;;;;;;2.92;1.58;;;;;;;16.93;100.00;99255.41;5316531;33;34454;-84
2023/10/25 10:46:30;;;;;;;2.80;1.85;;;;;;;17.19;100.00;99261.25;5323849;33;33822;-84
2023/10/25 10:49:35;;;;;;;1.70;1.60;;;;;;;17.67;100.00;99251.63;5313056;33;33307;-84
2023/10/25 10:52:40;;;;;;;6.53;1.90;;;;;;;17.97;100.00;99255.84;5295010;33;33920;-85
2023/10/25 10:55:45;;;;;;;1.42;1.33;;;;;;;18.64;100.00;99249.19;5307731;33;34627;-85
2023/10/25 10:58:50;;;;;;;1.50;1.33;;;;;;;19.35;100.00;99251.69;5287660;33;34365;-85
2023/10/25 11:01:54;;;;;;;1.42;1.33;;;;;;;19.82;100.00;99253.63;5299747;33;34848;-85
2023/10/25 11:04:58;;;;;;;1.10;1.10;;;;;;;20.31;100.00;99247.78;5298895;33;35028;-84
2023/10/25 11:08:09;;;;;;;1.15;1.08;;;;;;;20.59;100.00;99233.66;5293571;33;34507;-84
2023/10/25 11:11:13;;;;;;;1.00;1.00;;;;;;;20.90;100.00;99228.19;5309104;33;34390;-85
2023/10/25 11:14:16;;;;;;;4.47;1.20;;;;;;;21.11;96.69;99222.72;5311803;33;33882;-85
2023/10/25 11:17:20;;;;;;;3.42;1.40;;;;;;;21.26;95.23;99226.25;5285360;33;33487;-85
2023/10/25 11:20:24;;;;;;;1.27;1.10;;;;;;;22.07;92.56;99209.84;5310634;33;36138;-84
2023/10/25 11:23:27;;;;;;;3.12;1.40;;;;;;;22.10;88.92;99217.50;5301981;33;33813;-85
2023/10/25 11:26:30;;;;;;;0.90;0.90;;;;;;;22.24;81.63;99210.31;5300031;33;33929;-85
2023/10/25 11:29:34;;;;;;;1.90;1.35;;;;;;;23.12;78.89;99207.75;5299154;33;34164;-84
2023/10/25 11:32:42;;;;;;;3.10;1.27;;;;;;;22.72;78.17;99210.53;5300866;33;34470;-85
2023/10/25 11:35:45;;;;;;;1.33;1.20;;;;;;;22.02;74.70;99218.88;5325202;33;34045;-85
2023/10/25 11:38:48;;;;;;;6.85;1.17;;;;;;;22.19;74.40;99218.56;5305442;33;33884;-86
2023/10/25 11:41:51;;;;;;;1.92;1.25;;;;;;;21.21;79.75;99228.19;5321292;33;34047;-89
2023/10/25 11:44:54;;;;;;;1.73;1.30;;;;;;;21.25;77.59;99237.47;5311793;33;33829;-89
2023/10/25 11:48:00;;;;;;;1.30;1.20;;;;;;;21.89;74.48;99238.69;5307321;33;33717;-89
2023/10/25 11:51:06;;;;;;;1.08;0.98;;;;;;;25.47;60.58;99232.81;5323367;33;33851;-86
2023/10/25 11:54:09;;;;;;;2.17;1.23;;;;;;;24.63;62.97;99238.37;5310959;33;33513;-85
2023/10/25 11:57:29;;;;;;;1.20;1.10;;;;;;;25.50;59.89;99228.63;5299395;33;33898;-85
2023/10/25 12:00:32;;;;;;;1.20;1.10;;;;;;;26.83;53.76;99212.81;5316473;33;35080;-85
2023/10/25 12:03:38;;;;;;;1.92;1.45;;;;;;;26.37;50.00;99221.34;5311433;33;35368;-85
2023/10/25 12:06:41;;;;;;;1.40;1.30;;;;;;;27.68;47.06;99206.44;5294115;33;33739;-85
2023/10/25 12:09:45;;;;;;;1.48;1.10;;;;;;;26.81;50.51;99201.25;5282663;33;34132;-85
2023/10/25 12:12:48;;;;;;;1.85;1.00;;;;;;;26.84;48.12;99202.56;5307359;33;33490;-85
2023/10/25 12:15:51;;;;;;;3.15;1.02;;;;;;;30.83;36.38;99206.97;5314158;33;33816;-85
2023/10/25 12:18:57;;;;;;;1.15;1.00;;;;;;;31.59;33.08;99202.03;5304303;33;33437;-85
2023/10/25 12:22:02;;;;;;;1.52;0.95;;;;;;;28.73;37.31;99210.22;5293254;33;34833;-85
2023/10/25 12:25:06;;;;;;;1.17;1.17;;;;;;;26.45;42.84;99201.28;5305882;33;33486;-85
2023/10/25 12:28:09;;;;;;;1.42;1.10;;;;;;;25.47;46.99;99188.72;5322396;33;33389;-85
2023/10/25 12:31:12;;;;;;;1.37;1.20;;;;;;;24.36;49.70;99193.03;5309843;33;33439;-84
2023/10/25 12:34:15;;;;;;;2.17;1.40;;;;;;;26.98;45.69;99189.50;5304847;33;33885;-84
2023/10/25 12:37:19;;;;;;;1.10;1.00;;;;;;;30.17;37.05;99176.25;5285379;33;35087;-82
2023/10/25 12:40:23;;;;;;;1.23;1.12;;;;;;;27.61;42.66;99176.47;5272797;33;35342;-84
2023/10/25 12:43:26;;;;;;;1.27;1.17;;;;;;;24.61;48.11;99185.56;5302314;33;33733;-84
2023/10/25 12:46:31;;;;;;;1.40;1.30;;;;;;;23.35;53.05;99178.69;5297034;33;34266;-85
2023/10/25 12:49:34;;;;;;;2.95;1.10;;;;;;;22.27;55.75;99176.03;5291800;33;33775;-83
2023/10/25 12:52:37;;;;;;;1.60;1.10;;;;;;;21.58;61.13;99174.97;5297209;33;34551;-84
2023/10/25 12:55:41;;;;;;;1.98;1.37;;;;;;;20.85;61.32;99170.72;5321362;33;33722;-84
2023/10/25 12:58:44;;;;;;;1.90;1.50;;;;;;;20.62;61.87;99169.38;5300808;33;33813;-83
2023/10/25 13:01:50;;;;;;;1.27;1.20;;;;;;;20.34;64.18;99185.19;5314863;33;33973;-84
2023/10/25 13:04:56;;;;;;;1.70;1.50;;;;;;;20.22;64.42;99175.63;5304580;33;35291;-86
2023/10/25 13:07:59;;;;;;;1.70;1.35;;;;;;;20.20;63.86;99164.13;5293089;33;33954;-86
2023/10/25 13:11:02;;;;;;;2.20;1.52;;;;;;;20.16;64.90;99161.13;5297140;33;33584;-86
2023/10/25 13:14:05;;;;;;;1.55;1.45;;;;;;;20.24;71.12;99166.06;5313773;33;34991;-86
2023/10/25 13:17:08;;;;;;;1.73;1.40;;;;;;;20.26;64.57;99169.31;5338702;33;33556;-86
2023/10/25 13:20:22;;;;;;;2.33;1.33;;;;;;;20.20;67.23;99173.13;5300829;33;35287;-87
2023/10/25 13:23:29;;;;;;;2.22;1.20;;;;;;;20.36;65.00;99166.62;5307261;33;34218;-90
2023/10/25 13:26:32;;;;;;;1.35;1.23;;;;;;;20.29;66.03;99170.69;5302560;33;34883;-90
2023/10/25 13:29:35;;;;;;;1.70;1.20;;;;;;;19.98;65.11;99175.25;5311871;33;35401;-91
2023/10/25 13:32:38;;;;;;;4.50;1.50;;;;;;;20.00;65.04;99178.56;5313593;33;33649;-86
2023/10/25 13:35:42;;;;;;;1.42;1.33;;;;;;;19.98;65.30;99178.84;5311140;33;33738;-86
2023/10/25 13:38:45;;;;;;;1.67;1.37;;;;;;;19.88;65.56;99168.69;5289514;33;34311;-86
2023/10/25 13:41:49;;;;;;;4.72;1.10;;;;;;;19.62;68.46;99186.84;5322686;33;34539;-86
2023/10/25 13:44:52;;;;;;;1.33;1.27;;;;;;;19.52;67.60;99186.00;5317468;33;33623;-87
2023/10/25 13:47:56;;;;;;;2.33;1.50;;;;;;;19.15;75.28;99178.69;5327675;33;35378;-87
2023/10/25 13:50:59;;;;;;;1.48;1.37;;;;;;;19.10;70.27;99186.84;5316692;33;33553;-87
2023/10/25 13:54:03;;;;;;;1.35;1.10;;;;;;;18.70;72.40;99189.00;5314302;33;34629;-86
2023/10/25 13:57:05;;;;;;;2.10;1.40;;;;;;;18.73;74.01;99180.31;5323834;33;33985;-87
2023/10/25 14:00:10;;;;;;;1.70;1.60;;;;;;;18.57;78.31;99163.00;5326476;33;33789;-85
2023/10/25 14:03:13;;;;;;;1.48;1.37;;;;;;;18.64;75.93;99164.69;5313573;33;33454;-85
2023/10/25 14:06:17;;;;;;;2.03;1.40;;;;;;;18.39;73.73;99159.81;5298155;33;33796;-85
2023/10/25 14:09:20;;;;;;;1.73;1.23;;;;;;;18.24;77.47;99166.78;5295027;33;34006;-85
2023/10/25 14:12:27;;;;;;;1.15;1.10;;;;;;;18.20;76.46;99168.38;5287868;33;33826;-84
2023/10/25 14:15:34;;;;;;;2.67;1.30;;;;;;;18.09;77.25;99166.62;5320877;33;35425;-85
2023/10/25 14:18:38;;;;;;;1.75;1.60;;;;;;;18.06;81.27;99161.69;5302050;33;34563;-85
2023/10/25 14:21:41;;;;;;;2.08;1.60;;;;;;;18.30;77.28;99167.66;5310175;33;35064;-84
2023/10/25 14:24:44;;;;;;;1.58;1.48;;;;;;;18.39;77.00;99165.28;5308531;33;33737;-84
2023/10/25 14:27:47;;;;;;;1.37;1.20;;;;;;;18.27;79.14;99168.16;5300381;33;33956;-84
2023/10/25 14:30:50;;;;;;;1.95;1.40;;;;;;;18.21;76.95;99174.66;5304723;33;33862;-84
2023/10/25 14:33:53;;;;;;;1.40;1.30;;;;;;;18.05;83.50;99162.78;5300692;33;34097;-84
2023/10/25 14:36:57;;;;;;;1.60;1.50;;;;;;;17.98;82.39;99160.25;5310312;33;34075;-85
2023/10/25 14:40:04;;;;;;;3.12;1.37;;;;;;;18.00;81.26;99168.19;5310371;33;33768;-85
2023/10/25 14:43:08;;;;;;;1.48;1.37;;;;;;;17.86;82.79;99168.56;5316857;33;33828;-85
2023/10/25 14:46:12;;;;;;;4.03;1.50;;;;;;;17.71;79.40;99170.25;5320047;33;34135;-85
2023/10/25 14:49:16;;;;;;;1.27;1.20;;;;;;;17.66;87.08;99168.28;5302748;33;33757;-85
2023/10/25 14:52:20;;;;;;;1.20;1.10;;;;;;;17.48;79.92;99164.00;5310908;33;34487;-85
2023/10/25 14:55:23;;;;;;;2.95;1.40;;;;;;;17.37;82.61;99160.31;5293681;33;33788;-85
2023/10/25 14:58:26;;;;;;;2.75;1.05;;;;;;;17.27;85.87;99160.19;5313411;33;33464;-84
2023/10/25 15:01:29;;;;;;;1.60;1.50;;;;;;;17.21;82.82;99155.75;5303110;33;34599;-85
2023/10/25 15:04:32;;;;;;;1.58;1.48;;;;;;;17.25;84.67;99156.88;5326549;33;33772;-85
2023/10/25 15:07:37;;;;;;;1.45;1.33;;;;;;;17.15;84.90;99167.66;5312596;33;33758;-84
2023/10/25 15:10:40;;;;;;;1.00;1.00;;;;;;;17.08;83.50;99158.81;5325235;33;34092;-85
2023/10/25 15:13:43;;;;;;;1.55;0.98;;;;;;;17.11;85.76;99151.00;5301065;33;34809;-85
2023/10/25 15:16:46;;;;;;;1.95;1.30;;;;;;;16.96;86.77;99158.94;5312942;33;33904;-84
2023/10/25 15:19:49;;;;;;;2.10;1.33;;;;;;;16.86;89.08;99156.88;5305050;33;269242;-84
2023/10/25 15:22:52;;;;;;;1.10;1.00;;;;;;;16.76;90.76;99159.47;5312099;33;33744;-85
2023/10/25 15:26:03;;;;;;;2.10;1.37;;;;;;;16.74;85.44;99146.06;5312226;33;33869;-84
2023/10/25 15:29:06;;;;;;;1.62;1.02;;;;;;;16.67;87.85;99144.59;5312647;33;33966;-90
2023/10/25 15:32:11;;;;;;;1.33;1.10;;;;;;;16.59;90.05;99143.12;5300321;33;33413;-89
2023/10/25 15:35:13;;;;;;;5.55;1.23;;;;;;;16.51;96.74;99146.25;5312628;33;34682;-85
2023/10/25 15:38:16;;;;;;;1.55;1.37;;;;;;;16.36;97.58;99137.84;5325403;33;33526;-85
2023/10/25 15:41:25;;;;;;;1.27;1.17;;;;;;;16.27;97.97;99132.00;5325212;33;33640;-85
2023/10/25 15:44:28;;;;;;;1.95;1.20;;;;;;;16.18;100.00;99133.47;5329648;33;34082;-85
2023/10/25 15:47:31;;;;;;;1.50;1.40;;;;;;;16.05;100.00;99124.56;5314774;33;34143;-85
2023/10/25 15:50:34;;;;;;;1.75;1.50;;;;;;;15.97;100.00;99119.53;5317883;33;33765;-85
2023/10/25 15:53:37;;;;;;;1.37;1.30;;;;;;;15.84;100.00;99109.78;5304864;33;34559;-85
2023/10/25 15:56:41;;;;;;;1.42;1.33;;;;;;;15.81;100.00;99114.91;5310724;33;34048;-85
